sensor_id;sensor_type;location;lat;lon;timestamp;P1;durP1;ratioP1;P2;durP2;ratioP2
17520;SDS011;8878;-33.370;-70.552;2022-08-01T00:00:38;28.57;;;7.77;;
17520;SDS011;8878;-33.370;-70.552;2022-08-01T00:03:07;19.43;;;8.67;;
17520;SDS011;8878;-33.370;-70.552;2022-08-01T00:05:36;16.63;;;7.93;;
17520;SDS011;8878;-33.370;-70.552;2022-08-01T00:08:09;32.30;;;8.90;;
17520;SDS011;8878;-33.370;-70.552;2022-08-01T00:10:39;24.97;;;10.23;;
17520;SDS011;8878;-33.370;-70.552;2022-08-01T00:13:09;17.47;;;9.30;;
17520;SDS011;8878;-33.370;-70.552;2022-08-01T00:15:39;20.10;;;9.50;;
17520;SDS011;8878;-33.370;-70.552;2022-08-01T00:18:09;25.50;;;8.83;;
17520;SDS011;8878;-33.370;-70.552;2022-08-01T00:20:38;26.43;;;9.77;;
17520;SDS011;8878;-33.370;-70.552;2022-08-01T00:23:09;22.07;;;8.80;;
17520;SDS011;8878;-33.370;-70.552;2022-08-01T00:25:39;23.57;;;7.50;;
17520;SDS011;8878;-33.370;-70.552;2022-08-01T00:28:08;18.60;;;8.53;;
17520;SDS011;8878;-33.370;-70.552;2022-08-01T00:30:39;17.47;;;8.20;;
17520;SDS011;8878;-33.370;-70.552;2022-08-01T00:33:08;15.50;;;7.83;;
17520;SDS011;8878;-33.370;-70.552;2022-08-01T00:35:38;16.50;;;7.57;;
17520;SDS011;8878;-33.370;-70.552;2022-08-01T00:38:07;14.43;;;8.30;;
17520;SDS011;8878;-33.370;-70.552;2022-08-01T00:40:38;19.17;;;7.67;;
17520;SDS011;8878;-33.370;-70.552;2022-08-01T00:43:08;25.37;;;9.10;;
17520;SDS011;8878;-33.370;-70.552;2022-08-01T00:45:38;18.07;;;7.97;;
17520;SDS011;8878;-33.370;-70.552;2022-08-01T00:48:08;13.80;;;7.63;;
17520;SDS011;8878;-33.370;-70.552;2022-08-01T00:50:37;15.67;;;7.67;;
17520;SDS011;8878;-33.370;-70.552;2022-08-01T00:53:07;26.70;;;8.40;;
17520;SDS011;8878;-33.370;-70.552;2022-08-01T00:55:38;25.60;;;8.47;;
17520;SDS011;8878;-33.370;-70.552;2022-08-01T00:58:08;17.73;;;7.73;;
17520;SDS011;8878;-33.370;-70.552;2022-08-01T01:00:38;20.83;;;7.47;;
17520;SDS011;8878;-33.370;-70.552;2022-08-01T01:03:08;20.33;;;8.30;;
17520;SDS011;8878;-33.370;-70.552;2022-08-01T01:05:40;16.53;;;9.27;;
17520;SDS011;8878;-33.370;-70.552;2022-08-01T01:08:22;21.67;;;9.93;;
17520;SDS011;8878;-33.370;-70.552;2022-08-01T01:11:01;26.13;;;9.17;;
17520;SDS011;8878;-33.370;-70.552;2022-08-01T01:13:38;20.53;;;7.90;;
17520;SDS011;8878;-33.370;-70.552;2022-08-01T01:16:14;25.57;;;8.10;;
17520;SDS011;8878;-33.370;-70.552;2022-08-01T01:18:46;15.57;;;6.93;;
17520;SDS011;8878;-33.370;-70.552;2022-08-01T01:21:29;19.20;;;6.60;;
17520;SDS011;8878;-33.370;-70.552;2022-08-01T01:24:11;42.20;;;8.40;;
17520;SDS011;8878;-33.370;-70.552;2022-08-01T01:26:51;15.87;;;7.83;;
17520;SDS011;8878;-33.370;-70.552;2022-08-01T01:29:26;10.23;;;6.50;;
17520;SDS011;8878;-33.370;-70.552;2022-08-01T01:32:02;20.77;;;7.53;;
17520;SDS011;8878;-33.370;-70.552;2022-08-01T01:34:35;15.37;;;8.30;;
17520;SDS011;8878;-33.370;-70.552;2022-08-01T01:37:08;20.97;;;9.63;;
17520;SDS011;8878;-33.370;-70.552;2022-08-01T01:39:40;21.10;;;7.83;;
17520;SDS011;8878;-33.370;-70.552;2022-08-01T01:42:10;21.00;;;8.27;;
17520;SDS011;8878;-33.370;-70.552;2022-08-01T01:44:43;14.73;;;6.93;;
17520;SDS011;8878;-33.370;-70.552;2022-08-01T01:47:13;23.37;;;7.10;;
17520;SDS011;8878;-33.370;-70.552;2022-08-01T01:49:44;22.03;;;9.13;;
17520;SDS011;8878;-33.370;-70.552;2022-08-01T01:52:15;8.00;;;6.17;;
17520;SDS011;8878;-33.370;-70.552;2022-08-01T01:54:48;10.67;;;6.63;;
17520;SDS011;8878;-33.370;-70.552;2022-08-01T01:57:19;14.43;;;8.07;;
17520;SDS011;8878;-33.370;-70.552;2022-08-01T01:59:51;12.23;;;7.93;;
17520;SDS011;8878;-33.370;-70.552;2022-08-01T02:02:21;19.10;;;9.50;;
17520;SDS011;8878;-33.370;-70.552;2022-08-01T02:04:52;15.23;;;8.10;;
17520;SDS011;8878;-33.370;-70.552;2022-08-01T02:07:24;9.53;;;6.57;;
17520;SDS011;8878;-33.370;-70.552;2022-08-01T02:09:55;19.23;;;10.13;;
17520;SDS011;8878;-33.370;-70.552;2022-08-01T02:12:27;21.23;;;6.37;;
17520;SDS011;8878;-33.370;-70.552;2022-08-01T02:15:02;10.60;;;6.33;;
17520;SDS011;8878;-33.370;-70.552;2022-08-01T02:17:36;25.77;;;8.83;;
17520;SDS011;8878;-33.370;-70.552;2022-08-01T02:20:10;17.50;;;7.20;;
17520;SDS011;8878;-33.370;-70.552;2022-08-01T02:22:41;15.40;;;6.13;;
17520;SDS011;8878;-33.370;-70.552;2022-08-01T02:25:16;17.00;;;8.07;;
17520;SDS011;8878;-33.370;-70.552;2022-08-01T02:27:52;12.70;;;6.77;;
17520;SDS011;8878;-33.370;-70.552;2022-08-01T02:30:28;18.53;;;6.47;;
17520;SDS011;8878;-33.370;-70.552;2022-08-01T02:33:02;16.63;;;6.43;;
17520;SDS011;8878;-33.370;-70.552;2022-08-01T02:35:34;24.93;;;5.73;;
17520;SDS011;8878;-33.370;-70.552;2022-08-01T02:38:06;12.63;;;6.33;;
17520;SDS011;8878;-33.370;-70.552;2022-08-01T02:40:38;19.47;;;7.40;;
17520;SDS011;8878;-33.370;-70.552;2022-08-01T02:43:15;11.73;;;6.87;;
17520;SDS011;8878;-33.370;-70.552;2022-08-01T02:45:51;8.53;;;5.43;;
17520;SDS011;8878;-33.370;-70.552;2022-08-01T02:48:24;16.33;;;6.77;;
17520;SDS011;8878;-33.370;-70.552;2022-08-01T02:50:57;11.57;;;6.57;;
17520;SDS011;8878;-33.370;-70.552;2022-08-01T02:53:30;7.90;;;6.97;;
17520;SDS011;8878;-33.370;-70.552;2022-08-01T02:56:03;21.23;;;8.13;;
17520;SDS011;8878;-33.370;-70.552;2022-08-01T02:58:33;13.20;;;5.83;;
17520;SDS011;8878;-33.370;-70.552;2022-08-01T03:01:06;38.67;;;6.63;;
17520;SDS011;8878;-33.370;-70.552;2022-08-01T03:03:37;13.33;;;6.63;;
17520;SDS011;8878;-33.370;-70.552;2022-08-01T03:06:07;19.77;;;7.07;;
17520;SDS011;8878;-33.370;-70.552;2022-08-01T03:08:38;14.93;;;5.97;;
17520;SDS011;8878;-33.370;-70.552;2022-08-01T03:11:10;12.60;;;6.13;;
17520;SDS011;8878;-33.370;-70.552;2022-08-01T03:13:42;15.90;;;5.80;;
17520;SDS011;8878;-33.370;-70.552;2022-08-01T03:16:15;14.03;;;7.03;;
17520;SDS011;8878;-33.370;-70.552;2022-08-01T03:18:47;16.07;;;6.43;;
17520;SDS011;8878;-33.370;-70.552;2022-08-01T03:21:19;13.30;;;5.73;;
17520;SDS011;8878;-33.370;-70.552;2022-08-01T03:23:50;12.73;;;5.10;;
17520;SDS011;8878;-33.370;-70.552;2022-08-01T03:26:24;13.80;;;7.23;;
17520;SDS011;8878;-33.370;-70.552;2022-08-01T03:28:55;29.03;;;9.23;;
17520;SDS011;8878;-33.370;-70.552;2022-08-01T03:31:29;13.23;;;5.73;;
17520;SDS011;8878;-33.370;-70.552;2022-08-01T03:33:59;11.73;;;5.77;;
17520;SDS011;8878;-33.370;-70.552;2022-08-01T03:36:28;11.47;;;5.47;;
17520;SDS011;8878;-33.370;-70.552;2022-08-01T03:39:00;13.10;;;6.33;;
17520;SDS011;8878;-33.370;-70.552;2022-08-01T03:41:33;13.03;;;6.17;;
17520;SDS011;8878;-33.370;-70.552;2022-08-01T03:44:07;16.67;;;6.70;;
17520;SDS011;8878;-33.370;-70.552;2022-08-01T03:46:44;15.67;;;7.63;;
17520;SDS011;8878;-33.370;-70.552;2022-08-01T03:49:17;11.80;;;4.80;;
17520;SDS011;8878;-33.370;-70.552;2022-08-01T03:51:49;18.90;;;5.70;;
17520;SDS011;8878;-33.370;-70.552;2022-08-01T03:54:21;10.13;;;6.47;;
17520;SDS011;8878;-33.370;-70.552;2022-08-01T03:56:53;9.90;;;5.33;;
17520;SDS011;8878;-33.370;-70.552;2022-08-01T03:59:23;10.03;;;4.83;;
17520;SDS011;8878;-33.370;-70.552;2022-08-01T04:01:55;17.47;;;6.93;;
17520;SDS011;8878;-33.370;-70.552;2022-08-01T04:04:25;15.67;;;5.20;;
17520;SDS011;8878;-33.370;-70.552;2022-08-01T04:06:56;10.70;;;5.57;;
17520;SDS011;8878;-33.370;-70.552;2022-08-01T04:09:30;11.97;;;5.67;;
17520;SDS011;8878;-33.370;-70.552;2022-08-01T04:11:59;10.13;;;6.20;;
17520;SDS011;8878;-33.370;-70.552;2022-08-01T04:14:29;11.40;;;4.87;;
17520;SDS011;8878;-33.370;-70.552;2022-08-01T04:17:01;16.17;;;5.87;;
17520;SDS011;8878;-33.370;-70.552;2022-08-01T04:19:30;5.70;;;4.07;;
17520;SDS011;8878;-33.370;-70.552;2022-08-01T04:22:00;14.97;;;5.63;;
17520;SDS011;8878;-33.370;-70.552;2022-08-01T04:24:30;6.87;;;5.47;;
17520;SDS011;8878;-33.370;-70.552;2022-08-01T04:27:04;16.10;;;5.17;;
17520;SDS011;8878;-33.370;-70.552;2022-08-01T04:29:37;9.07;;;4.43;;
17520;SDS011;8878;-33.370;-70.552;2022-08-01T04:32:10;16.27;;;6.70;;
17520;SDS011;8878;-33.370;-70.552;2022-08-01T04:34:43;13.50;;;4.70;;
17520;SDS011;8878;-33.370;-70.552;2022-08-01T04:37:14;13.67;;;5.53;;
17520;SDS011;8878;-33.370;-70.552;2022-08-01T04:39:45;7.60;;;5.17;;
17520;SDS011;8878;-33.370;-70.552;2022-08-01T04:42:17;14.07;;;7.03;;
17520;SDS011;8878;-33.370;-70.552;2022-08-01T04:44:46;14.70;;;5.10;;
17520;SDS011;8878;-33.370;-70.552;2022-08-01T04:47:18;5.87;;;4.37;;
17520;SDS011;8878;-33.370;-70.552;2022-08-01T04:49:49;8.77;;;4.30;;
17520;SDS011;8878;-33.370;-70.552;2022-08-01T04:52:19;14.00;;;6.20;;
17520;SDS011;8878;-33.370;-70.552;2022-08-01T04:54:49;11.27;;;4.33;;
17520;SDS011;8878;-33.370;-70.552;2022-08-01T04:57:19;17.90;;;7.43;;
17520;SDS011;8878;-33.370;-70.552;2022-08-01T04:59:48;15.43;;;5.50;;
17520;SDS011;8878;-33.370;-70.552;2022-08-01T05:02:24;15.73;;;5.33;;
17520;SDS011;8878;-33.370;-70.552;2022-08-01T05:04:55;10.63;;;4.80;;
17520;SDS011;8878;-33.370;-70.552;2022-08-01T05:07:24;10.23;;;5.50;;
17520;SDS011;8878;-33.370;-70.552;2022-08-01T05:09:53;10.77;;;4.50;;
17520;SDS011;8878;-33.370;-70.552;2022-08-01T05:12:23;7.23;;;4.47;;
17520;SDS011;8878;-33.370;-70.552;2022-08-01T05:14:52;14.50;;;6.47;;
17520;SDS011;8878;-33.370;-70.552;2022-08-01T05:17:24;29.97;;;6.63;;
17520;SDS011;8878;-33.370;-70.552;2022-08-01T05:19:54;13.97;;;6.57;;
17520;SDS011;8878;-33.370;-70.552;2022-08-01T05:22:23;14.07;;;6.23;;
17520;SDS011;8878;-33.370;-70.552;2022-08-01T05:24:53;13.90;;;5.87;;
17520;SDS011;8878;-33.370;-70.552;2022-08-01T05:27:23;18.37;;;8.23;;
17520;SDS011;8878;-33.370;-70.552;2022-08-01T05:29:52;12.20;;;5.10;;
17520;SDS011;8878;-33.370;-70.552;2022-08-01T05:32:21;8.67;;;5.03;;
17520;SDS011;8878;-33.370;-70.552;2022-08-01T05:34:53;10.40;;;4.97;;
17520;SDS011;8878;-33.370;-70.552;2022-08-01T05:37:22;9.90;;;5.90;;
17520;SDS011;8878;-33.370;-70.552;2022-08-01T05:39:51;6.63;;;4.80;;
17520;SDS011;8878;-33.370;-70.552;2022-08-01T05:42:21;8.07;;;5.60;;
17520;SDS011;8878;-33.370;-70.552;2022-08-01T05:44:50;13.97;;;5.63;;
17520;SDS011;8878;-33.370;-70.552;2022-08-01T05:47:20;13.10;;;5.07;;
17520;SDS011;8878;-33.370;-70.552;2022-08-01T05:49:51;10.07;;;4.70;;
17520;SDS011;8878;-33.370;-70.552;2022-08-01T05:52:20;14.23;;;4.47;;
17520;SDS011;8878;-33.370;-70.552;2022-08-01T05:54:50;8.47;;;4.83;;
17520;SDS011;8878;-33.370;-70.552;2022-08-01T05:57:19;25.77;;;4.13;;
17520;SDS011;8878;-33.370;-70.552;2022-08-01T05:59:48;11.57;;;5.03;;
17520;SDS011;8878;-33.370;-70.552;2022-08-01T06:02:18;13.03;;;4.80;;
17520;SDS011;8878;-33.370;-70.552;2022-08-01T06:04:47;8.63;;;4.13;;
17520;SDS011;8878;-33.370;-70.552;2022-08-01T06:07:19;16.90;;;5.87;;
17520;SDS011;8878;-33.370;-70.552;2022-08-01T06:09:48;7.77;;;5.53;;
17520;SDS011;8878;-33.370;-70.552;2022-08-01T06:12:18;7.30;;;3.37;;
17520;SDS011;8878;-33.370;-70.552;2022-08-01T06:14:47;8.57;;;4.23;;
17520;SDS011;8878;-33.370;-70.552;2022-08-01T06:17:16;8.03;;;4.33;;
17520;SDS011;8878;-33.370;-70.552;2022-08-01T06:19:46;12.30;;;4.03;;
17520;SDS011;8878;-33.370;-70.552;2022-08-01T06:22:15;5.77;;;4.20;;
17520;SDS011;8878;-33.370;-70.552;2022-08-01T06:24:46;7.60;;;5.30;;
17520;SDS011;8878;-33.370;-70.552;2022-08-01T06:27:16;10.97;;;3.90;;
17520;SDS011;8878;-33.370;-70.552;2022-08-01T06:29:46;5.33;;;3.90;;
17520;SDS011;8878;-33.370;-70.552;2022-08-01T06:32:16;8.20;;;4.73;;
17520;SDS011;8878;-33.370;-70.552;2022-08-01T06:34:46;11.83;;;3.93;;
17520;SDS011;8878;-33.370;-70.552;2022-08-01T06:37:15;6.93;;;2.87;;
17520;SDS011;8878;-33.370;-70.552;2022-08-01T06:39:47;8.47;;;3.90;;
17520;SDS011;8878;-33.370;-70.552;2022-08-01T06:42:17;13.00;;;6.20;;
17520;SDS011;8878;-33.370;-70.552;2022-08-01T06:44:47;11.13;;;4.40;;
17520;SDS011;8878;-33.370;-70.552;2022-08-01T06:47:16;18.67;;;6.67;;
17520;SDS011;8878;-33.370;-70.552;2022-08-01T06:49:46;8.27;;;4.67;;
17520;SDS011;8878;-33.370;-70.552;2022-08-01T06:52:15;14.90;;;5.07;;
17520;SDS011;8878;-33.370;-70.552;2022-08-01T06:54:47;9.23;;;4.73;;
17520;SDS011;8878;-33.370;-70.552;2022-08-01T06:57:16;10.10;;;3.93;;
17520;SDS011;8878;-33.370;-70.552;2022-08-01T06:59:46;13.67;;;5.37;;
17520;SDS011;8878;-33.370;-70.552;2022-08-01T07:02:15;8.47;;;4.03;;
17520;SDS011;8878;-33.370;-70.552;2022-08-01T07:04:45;14.27;;;5.77;;
17520;SDS011;8878;-33.370;-70.552;2022-08-01T07:07:14;14.87;;;5.30;;
17520;SDS011;8878;-33.370;-70.552;2022-08-01T07:09:46;22.30;;;6.07;;
17520;SDS011;8878;-33.370;-70.552;2022-08-01T07:12:15;11.97;;;5.93;;
17520;SDS011;8878;-33.370;-70.552;2022-08-01T07:14:44;17.63;;;7.63;;
17520;SDS011;8878;-33.370;-70.552;2022-08-01T07:17:14;17.20;;;5.97;;
17520;SDS011;8878;-33.370;-70.552;2022-08-01T07:19:43;12.23;;;5.83;;
17520;SDS011;8878;-33.370;-70.552;2022-08-01T07:22:12;10.30;;;5.70;;
17520;SDS011;8878;-33.370;-70.552;2022-08-01T07:24:42;10.47;;;5.37;;
17520;SDS011;8878;-33.370;-70.552;2022-08-01T07:27:13;18.10;;;7.90;;
17520;SDS011;8878;-33.370;-70.552;2022-08-01T07:29:43;13.37;;;7.57;;
17520;SDS011;8878;-33.370;-70.552;2022-08-01T07:32:12;13.57;;;6.37;;
17520;SDS011;8878;-33.370;-70.552;2022-08-01T07:34:41;13.50;;;5.90;;
17520;SDS011;8878;-33.370;-70.552;2022-08-01T07:37:11;10.87;;;6.20;;
17520;SDS011;8878;-33.370;-70.552;2022-08-01T07:39:40;9.77;;;5.93;;
17520;SDS011;8878;-33.370;-70.552;2022-08-01T07:42:11;14.30;;;6.03;;
17520;SDS011;8878;-33.370;-70.552;2022-08-01T07:44:41;13.30;;;5.97;;
17520;SDS011;8878;-33.370;-70.552;2022-08-01T07:47:10;11.20;;;6.73;;
17520;SDS011;8878;-33.370;-70.552;2022-08-01T07:49:40;16.00;;;7.10;;
17520;SDS011;8878;-33.370;-70.552;2022-08-01T07:52:10;13.43;;;4.70;;
17520;SDS011;8878;-33.370;-70.552;2022-08-01T07:54:39;16.07;;;6.30;;
17520;SDS011;8878;-33.370;-70.552;2022-08-01T07:57:09;10.70;;;6.83;;
17520;SDS011;8878;-33.370;-70.552;2022-08-01T07:59:40;13.20;;;7.67;;
17520;SDS011;8878;-33.370;-70.552;2022-08-01T08:02:09;15.30;;;6.83;;
17520;SDS011;8878;-33.370;-70.552;2022-08-01T08:04:39;17.03;;;8.03;;
17520;SDS011;8878;-33.370;-70.552;2022-08-01T08:07:09;18.80;;;8.80;;
17520;SDS011;8878;-33.370;-70.552;2022-08-01T08:09:38;15.50;;;7.60;;
17520;SDS011;8878;-33.370;-70.552;2022-08-01T08:12:08;9.63;;;4.33;;
17520;SDS011;8878;-33.370;-70.552;2022-08-01T08:14:39;7.57;;;5.43;;
17520;SDS011;8878;-33.370;-70.552;2022-08-01T08:17:09;8.23;;;4.03;;
17520;SDS011;8878;-33.370;-70.552;2022-08-01T08:19:38;7.17;;;3.97;;
17520;SDS011;8878;-33.370;-70.552;2022-08-01T08:22:08;6.53;;;4.67;;
17520;SDS011;8878;-33.370;-70.552;2022-08-01T08:24:38;3.13;;;2.77;;
17520;SDS011;8878;-33.370;-70.552;2022-08-01T08:27:07;15.50;;;4.23;;
17520;SDS011;8878;-33.370;-70.552;2022-08-01T08:29:37;11.80;;;3.70;;
17520;SDS011;8878;-33.370;-70.552;2022-08-01T08:32:08;9.20;;;4.27;;
17520;SDS011;8878;-33.370;-70.552;2022-08-01T08:34:37;13.40;;;4.90;;
17520;SDS011;8878;-33.370;-70.552;2022-08-01T08:37:07;8.97;;;5.43;;
17520;SDS011;8878;-33.370;-70.552;2022-08-01T08:39:37;7.27;;;4.43;;
17520;SDS011;8878;-33.370;-70.552;2022-08-01T08:42:07;10.40;;;4.37;;
17520;SDS011;8878;-33.370;-70.552;2022-08-01T08:44:40;5.37;;;2.93;;
17520;SDS011;8878;-33.370;-70.552;2022-08-01T08:47:10;6.93;;;2.97;;
17520;SDS011;8878;-33.370;-70.552;2022-08-01T08:49:42;11.00;;;4.13;;
17520;SDS011;8878;-33.370;-70.552;2022-08-01T08:52:12;10.43;;;4.47;;
17520;SDS011;8878;-33.370;-70.552;2022-08-01T08:54:44;6.27;;;4.37;;
17520;SDS011;8878;-33.370;-70.552;2022-08-01T08:57:15;10.10;;;4.70;;
17520;SDS011;8878;-33.370;-70.552;2022-08-01T08:59:48;7.20;;;3.00;;
17520;SDS011;8878;-33.370;-70.552;2022-08-01T09:02:20;5.23;;;3.20;;
17520;SDS011;8878;-33.370;-70.552;2022-08-01T09:04:50;5.20;;;4.10;;
17520;SDS011;8878;-33.370;-70.552;2022-08-01T09:07:20;5.70;;;2.60;;
17520;SDS011;8878;-33.370;-70.552;2022-08-01T09:09:51;7.13;;;4.17;;
17520;SDS011;8878;-33.370;-70.552;2022-08-01T09:12:21;5.23;;;3.03;;
17520;SDS011;8878;-33.370;-70.552;2022-08-01T09:14:52;9.40;;;2.97;;
17520;SDS011;8878;-33.370;-70.552;2022-08-01T09:17:21;5.33;;;4.30;;
17520;SDS011;8878;-33.370;-70.552;2022-08-01T09:19:52;4.97;;;3.23;;
17520;SDS011;8878;-33.370;-70.552;2022-08-01T09:22:23;7.33;;;2.93;;
17520;SDS011;8878;-33.370;-70.552;2022-08-01T09:24:59;8.93;;;3.70;;
17520;SDS011;8878;-33.370;-70.552;2022-08-01T09:27:30;10.17;;;2.40;;
17520;SDS011;8878;-33.370;-70.552;2022-08-01T09:30:11;7.43;;;2.60;;
17520;SDS011;8878;-33.370;-70.552;2022-08-01T09:32:54;18.93;;;5.30;;
17520;SDS011;8878;-33.370;-70.552;2022-08-01T09:35:26;13.20;;;3.13;;
17520;SDS011;8878;-33.370;-70.552;2022-08-01T09:38:13;6.53;;;3.00;;
17520;SDS011;8878;-33.370;-70.552;2022-08-01T09:40:47;10.00;;;3.40;;
17520;SDS011;8878;-33.370;-70.552;2022-08-01T09:43:18;7.43;;;3.07;;
17520;SDS011;8878;-33.370;-70.552;2022-08-01T09:45:50;10.63;;;3.73;;
17520;SDS011;8878;-33.370;-70.552;2022-08-01T09:48:20;17.37;;;5.87;;
17520;SDS011;8878;-33.370;-70.552;2022-08-01T09:50:50;11.77;;;6.67;;
17520;SDS011;8878;-33.370;-70.552;2022-08-01T09:53:20;8.93;;;4.83;;
17520;SDS011;8878;-33.370;-70.552;2022-08-01T09:55:49;14.50;;;4.67;;
17520;SDS011;8878;-33.370;-70.552;2022-08-01T09:58:20;14.13;;;4.63;;
17520;SDS011;8878;-33.370;-70.552;2022-08-01T10:00:59;18.40;;;4.77;;
17520;SDS011;8878;-33.370;-70.552;2022-08-01T10:03:29;20.53;;;6.80;;
17520;SDS011;8878;-33.370;-70.552;2022-08-01T10:05:59;12.47;;;6.23;;
17520;SDS011;8878;-33.370;-70.552;2022-08-01T10:08:47;10.37;;;5.90;;
17520;SDS011;8878;-33.370;-70.552;2022-08-01T10:11:16;11.43;;;6.47;;
17520;SDS011;8878;-33.370;-70.552;2022-08-01T10:13:47;12.07;;;5.77;;
17520;SDS011;8878;-33.370;-70.552;2022-08-01T10:16:18;10.80;;;3.87;;
17520;SDS011;8878;-33.370;-70.552;2022-08-01T10:18:48;13.07;;;5.63;;
17520;SDS011;8878;-33.370;-70.552;2022-08-01T10:21:18;9.57;;;5.90;;
17520;SDS011;8878;-33.370;-70.552;2022-08-01T10:23:48;22.37;;;6.97;;
17520;SDS011;8878;-33.370;-70.552;2022-08-01T10:26:18;14.03;;;6.33;;
17520;SDS011;8878;-33.370;-70.552;2022-08-01T10:28:48;8.67;;;5.27;;
17520;SDS011;8878;-33.370;-70.552;2022-08-01T10:31:20;9.30;;;6.00;;
17520;SDS011;8878;-33.370;-70.552;2022-08-01T10:33:50;13.03;;;6.13;;
17520;SDS011;8878;-33.370;-70.552;2022-08-01T10:36:20;15.27;;;5.57;;
17520;SDS011;8878;-33.370;-70.552;2022-08-01T10:38:50;17.33;;;5.20;;
17520;SDS011;8878;-33.370;-70.552;2022-08-01T10:41:20;14.07;;;5.67;;
17520;SDS011;8878;-33.370;-70.552;2022-08-01T10:43:50;14.90;;;6.63;;
17520;SDS011;8878;-33.370;-70.552;2022-08-01T10:46:22;14.27;;;5.80;;
17520;SDS011;8878;-33.370;-70.552;2022-08-01T10:48:54;9.77;;;5.53;;
17520;SDS011;8878;-33.370;-70.552;2022-08-01T10:51:26;7.27;;;4.40;;
17520;SDS011;8878;-33.370;-70.552;2022-08-01T10:53:56;14.70;;;4.93;;
17520;SDS011;8878;-33.370;-70.552;2022-08-01T10:56:38;9.20;;;3.70;;
17520;SDS011;8878;-33.370;-70.552;2022-08-01T10:59:12;10.10;;;4.03;;
17520;SDS011;8878;-33.370;-70.552;2022-08-01T11:01:57;7.37;;;4.53;;
17520;SDS011;8878;-33.370;-70.552;2022-08-01T11:04:37;9.50;;;3.43;;
17520;SDS011;8878;-33.370;-70.552;2022-08-01T11:07:13;11.30;;;4.87;;
17520;SDS011;8878;-33.370;-70.552;2022-08-01T11:09:46;12.10;;;4.77;;
17520;SDS011;8878;-33.370;-70.552;2022-08-01T11:12:18;11.23;;;5.30;;
17520;SDS011;8878;-33.370;-70.552;2022-08-01T11:17:55;16.83;;;4.53;;
17520;SDS011;8878;-33.370;-70.552;2022-08-01T11:20:29;9.77;;;6.03;;
17520;SDS011;8878;-33.370;-70.552;2022-08-01T11:26:06;10.50;;;4.33;;
17520;SDS011;8878;-33.370;-70.552;2022-08-01T11:28:45;7.17;;;5.93;;
17520;SDS011;8878;-33.370;-70.552;2022-08-01T11:31:36;9.87;;;5.37;;
17520;SDS011;8878;-33.370;-70.552;2022-08-01T11:34:07;13.13;;;4.80;;
17520;SDS011;8878;-33.370;-70.552;2022-08-01T11:36:37;11.20;;;5.20;;
17520;SDS011;8878;-33.370;-70.552;2022-08-01T11:39:16;8.63;;;5.67;;
17520;SDS011;8878;-33.370;-70.552;2022-08-01T11:41:46;11.10;;;4.30;;
17520;SDS011;8878;-33.370;-70.552;2022-08-01T11:44:17;21.97;;;4.80;;
17520;SDS011;8878;-33.370;-70.552;2022-08-01T11:46:49;9.83;;;3.83;;
17520;SDS011;8878;-33.370;-70.552;2022-08-01T11:49:30;5.33;;;3.33;;
17520;SDS011;8878;-33.370;-70.552;2022-08-01T11:52:03;14.93;;;3.47;;
17520;SDS011;8878;-33.370;-70.552;2022-08-01T11:54:34;15.43;;;3.87;;
17520;SDS011;8878;-33.370;-70.552;2022-08-01T11:57:05;7.80;;;4.70;;
17520;SDS011;8878;-33.370;-70.552;2022-08-01T11:59:36;10.50;;;4.40;;
17520;SDS011;8878;-33.370;-70.552;2022-08-01T12:02:15;14.07;;;6.93;;
17520;SDS011;8878;-33.370;-70.552;2022-08-01T12:04:48;17.60;;;8.27;;
17520;SDS011;8878;-33.370;-70.552;2022-08-01T12:07:19;21.60;;;6.77;;
17520;SDS011;8878;-33.370;-70.552;2022-08-01T12:09:56;14.13;;;4.97;;
17520;SDS011;8878;-33.370;-70.552;2022-08-01T12:12:28;14.27;;;6.23;;
17520;SDS011;8878;-33.370;-70.552;2022-08-01T12:14:58;13.53;;;6.90;;
17520;SDS011;8878;-33.370;-70.552;2022-08-01T12:17:34;11.80;;;6.50;;
17520;SDS011;8878;-33.370;-70.552;2022-08-01T12:20:10;12.30;;;5.40;;
17520;SDS011;8878;-33.370;-70.552;2022-08-01T12:22:40;17.17;;;8.10;;
17520;SDS011;8878;-33.370;-70.552;2022-08-01T12:25:12;18.37;;;7.47;;
17520;SDS011;8878;-33.370;-70.552;2022-08-01T12:27:43;14.40;;;7.53;;
17520;SDS011;8878;-33.370;-70.552;2022-08-01T12:30:14;16.40;;;7.23;;
17520;SDS011;8878;-33.370;-70.552;2022-08-01T12:32:45;9.50;;;6.50;;
17520;SDS011;8878;-33.370;-70.552;2022-08-01T12:35:20;18.73;;;6.60;;
17520;SDS011;8878;-33.370;-70.552;2022-08-01T12:37:50;16.33;;;6.17;;
17520;SDS011;8878;-33.370;-70.552;2022-08-01T12:40:21;12.93;;;7.07;;
17520;SDS011;8878;-33.370;-70.552;2022-08-01T12:42:53;29.97;;;7.43;;
17520;SDS011;8878;-33.370;-70.552;2022-08-01T12:45:24;13.10;;;6.07;;
17520;SDS011;8878;-33.370;-70.552;2022-08-01T12:47:54;22.13;;;8.20;;
17520;SDS011;8878;-33.370;-70.552;2022-08-01T12:50:27;17.10;;;6.47;;
17520;SDS011;8878;-33.370;-70.552;2022-08-01T12:52:58;16.67;;;7.37;;
17520;SDS011;8878;-33.370;-70.552;2022-08-01T12:55:29;9.57;;;5.87;;
17520;SDS011;8878;-33.370;-70.552;2022-08-01T12:58:03;19.23;;;7.30;;
17520;SDS011;8878;-33.370;-70.552;2022-08-01T13:00:34;16.43;;;5.83;;
17520;SDS011;8878;-33.370;-70.552;2022-08-01T13:03:05;11.13;;;5.20;;
17520;SDS011;8878;-33.370;-70.552;2022-08-01T13:05:44;11.57;;;5.73;;
17520;SDS011;8878;-33.370;-70.552;2022-08-01T13:08:14;10.73;;;5.77;;
17520;SDS011;8878;-33.370;-70.552;2022-08-01T13:10:45;13.33;;;6.50;;
17520;SDS011;8878;-33.370;-70.552;2022-08-01T13:13:17;9.60;;;5.63;;
17520;SDS011;8878;-33.370;-70.552;2022-08-01T13:15:47;14.83;;;6.47;;
17520;SDS011;8878;-33.370;-70.552;2022-08-01T13:18:30;11.97;;;6.53;;
17520;SDS011;8878;-33.370;-70.552;2022-08-01T13:21:09;10.03;;;6.57;;
17520;SDS011;8878;-33.370;-70.552;2022-08-01T13:23:39;15.13;;;6.23;;
17520;SDS011;8878;-33.370;-70.552;2022-08-01T13:26:09;21.27;;;8.50;;
17520;SDS011;8878;-33.370;-70.552;2022-08-01T13:28:38;8.23;;;5.30;;
17520;SDS011;8878;-33.370;-70.552;2022-08-01T13:31:08;12.47;;;7.17;;
17520;SDS011;8878;-33.370;-70.552;2022-08-01T13:33:41;13.37;;;5.47;;
17520;SDS011;8878;-33.370;-70.552;2022-08-01T13:36:13;17.83;;;7.87;;
17520;SDS011;8878;-33.370;-70.552;2022-08-01T13:38:43;16.53;;;6.30;;
17520;SDS011;8878;-33.370;-70.552;2022-08-01T13:41:28;22.73;;;7.00;;
17520;SDS011;8878;-33.370;-70.552;2022-08-01T13:44:01;20.57;;;7.80;;
17520;SDS011;8878;-33.370;-70.552;2022-08-01T13:46:30;15.33;;;6.83;;
17520;SDS011;8878;-33.370;-70.552;2022-08-01T13:49:00;15.93;;;8.37;;
17520;SDS011;8878;-33.370;-70.552;2022-08-01T13:51:31;13.27;;;6.77;;
17520;SDS011;8878;-33.370;-70.552;2022-08-01T13:54:01;17.07;;;7.53;;
17520;SDS011;8878;-33.370;-70.552;2022-08-01T13:56:35;34.57;;;9.43;;
17520;SDS011;8878;-33.370;-70.552;2022-08-01T13:59:11;23.80;;;8.53;;
17520;SDS011;8878;-33.370;-70.552;2022-08-01T14:01:41;16.67;;;8.70;;
17520;SDS011;8878;-33.370;-70.552;2022-08-01T14:04:10;15.67;;;7.23;;
17520;SDS011;8878;-33.370;-70.552;2022-08-01T14:06:41;16.90;;;8.27;;
17520;SDS011;8878;-33.370;-70.552;2022-08-01T14:09:11;24.67;;;9.90;;
17520;SDS011;8878;-33.370;-70.552;2022-08-01T14:11:42;11.10;;;8.23;;
17520;SDS011;8878;-33.370;-70.552;2022-08-01T14:14:11;23.30;;;8.97;;
17520;SDS011;8878;-33.370;-70.552;2022-08-01T14:16:42;12.00;;;6.40;;
17520;SDS011;8878;-33.370;-70.552;2022-08-01T14:19:12;20.97;;;9.93;;
17520;SDS011;8878;-33.370;-70.552;2022-08-01T14:21:44;26.00;;;9.50;;
17520;SDS011;8878;-33.370;-70.552;2022-08-01T14:24:13;14.27;;;7.43;;
17520;SDS011;8878;-33.370;-70.552;2022-08-01T14:26:43;22.67;;;8.20;;
17520;SDS011;8878;-33.370;-70.552;2022-08-01T14:29:12;33.23;;;9.00;;
17520;SDS011;8878;-33.370;-70.552;2022-08-01T14:31:41;21.03;;;7.53;;
17520;SDS011;8878;-33.370;-70.552;2022-08-01T14:34:11;16.17;;;6.97;;
17520;SDS011;8878;-33.370;-70.552;2022-08-01T14:36:43;15.37;;;7.20;;
17520;SDS011;8878;-33.370;-70.552;2022-08-01T14:39:12;18.10;;;10.90;;
17520;SDS011;8878;-33.370;-70.552;2022-08-01T14:41:42;17.53;;;8.93;;